createdAt,value
2022-09-04T00:00:17.907Z,902
2022-09-04T00:02:17.951Z,790
2022-09-04T00:04:18.173Z,965
2022-09-04T00:06:17.797Z,928
2022-09-04T00:08:17.988Z,981
2022-09-04T00:10:17.972Z,868
2022-09-04T00:12:17.982Z,967
2022-09-04T00:14:17.797Z,890
2022-09-04T00:16:17.751Z,893
2022-09-04T00:18:18.066Z,923
2022-09-04T00:20:17.971Z,923
2022-09-04T00:22:17.949Z,940
2022-09-04T00:24:17.848Z,958
2022-09-04T00:26:17.688Z,831
2022-09-04T00:28:18.008Z,822
2022-09-04T00:30:17.979Z,845
2022-09-04T00:32:17.946Z,830
2022-09-04T00:34:17.771Z,834
2022-09-04T00:36:17.484Z,864
2022-09-04T00:38:18.262Z,921
2022-09-04T00:40:18.035Z,702
2022-09-04T00:42:17.860Z,829
2022-09-04T00:44:18.068Z,873
2022-09-04T00:46:17.934Z,845
2022-09-04T00:48:17.884Z,889
2022-09-04T00:50:17.795Z,871
2022-09-04T00:52:17.786Z,762
2022-09-04T00:54:18.032Z,881
2022-09-04T00:56:17.901Z,876
2022-09-04T00:58:17.804Z,837
2022-09-04T01:00:17.812Z,855
2022-09-04T01:02:18.171Z,846
2022-09-04T01:04:18.013Z,733
2022-09-04T01:06:17.899Z,718
2022-09-04T01:08:17.789Z,800
2022-09-04T01:10:18.114Z,837
2022-09-04T01:12:17.953Z,816
2022-09-04T01:14:18.074Z,744
2022-09-04T01:16:17.904Z,837
2022-09-04T01:18:17.868Z,719
2022-09-04T01:20:17.856Z,722
2022-09-04T01:22:17.943Z,788
2022-09-04T01:24:17.802Z,780
2022-09-04T01:26:17.660Z,751
2022-09-04T01:28:17.746Z,771
2022-09-04T01:30:17.697Z,725
2022-09-04T01:32:17.929Z,709
2022-09-04T01:34:18.013Z,632
2022-09-04T01:36:17.875Z,764
2022-09-04T01:38:17.935Z,772
2022-09-04T01:40:18.141Z,724
2022-09-04T01:42:17.911Z,778
2022-09-04T01:44:17.810Z,805
2022-09-04T01:46:17.671Z,598
2022-09-04T01:48:17.468Z,788
2022-09-04T01:50:17.457Z,771
2022-09-04T01:52:17.645Z,694
2022-09-04T01:54:17.508Z,724
2022-09-04T01:56:18.282Z,622
2022-09-04T01:58:18.112Z,723
2022-09-04T02:00:17.968Z,780
2022-09-04T02:02:17.960Z,657
2022-09-04T02:04:17.848Z,703
2022-09-04T02:06:17.903Z,741
2022-09-04T02:08:18.141Z,668
2022-09-04T02:10:18.018Z,709
2022-09-04T02:12:19.034Z,731
2022-09-04T02:14:17.962Z,757
2022-09-04T02:16:17.767Z,771
2022-09-04T02:18:17.746Z,608
2022-09-04T02:20:17.683Z,638
2022-09-04T02:22:17.439Z,771
2022-09-04T02:24:17.584Z,719
2022-09-04T02:26:17.935Z,746
2022-09-04T02:28:17.685Z,681
2022-09-04T02:30:17.426Z,545
2022-09-04T02:32:18.315Z,618
2022-09-04T02:34:17.745Z,731
2022-09-04T02:36:17.617Z,636
2022-09-04T02:38:17.419Z,742
2022-09-04T02:40:18.157Z,601
2022-09-04T02:42:17.952Z,723
2022-09-04T02:44:17.751Z,753
2022-09-04T02:46:17.613Z,707
2022-09-04T02:48:17.752Z,795
2022-09-04T02:50:17.600Z,654
2022-09-04T02:52:17.772Z,690
2022-09-04T02:54:17.615Z,755
2022-09-04T02:56:17.949Z,765
2022-09-04T02:58:18.154Z,818
2022-09-04T03:00:18.384Z,764
2022-09-04T03:02:18.273Z,747
2022-09-04T03:04:18.093Z,739
2022-09-04T03:06:17.990Z,773
2022-09-04T03:08:17.875Z,741
2022-09-04T03:10:17.719Z,620
2022-09-04T03:12:17.489Z,679
2022-09-04T03:14:17.344Z,676
2022-09-04T03:16:18.222Z,771
2022-09-04T03:18:18.368Z,607
2022-09-04T03:20:18.038Z,702
2022-09-04T03:22:17.958Z,591
2022-09-04T03:24:17.787Z,658
2022-09-04T03:26:17.583Z,686
2022-09-04T03:28:17.351Z,699
2022-09-04T03:30:18.376Z,692
2022-09-04T03:32:18.166Z,606
2022-09-04T03:34:17.977Z,609
2022-09-04T03:36:17.738Z,634
2022-09-04T03:38:17.604Z,679
2022-09-04T03:40:18.003Z,774
2022-09-04T03:42:17.898Z,682
2022-09-04T03:44:17.820Z,661
2022-09-04T03:46:17.761Z,685
2022-09-04T03:48:17.649Z,533
2022-09-04T03:50:17.689Z,772
2022-09-04T03:52:17.546Z,501
2022-09-04T03:54:18.421Z,746
2022-09-04T03:56:18.189Z,753
2022-09-04T03:58:18.300Z,635
2022-09-04T04:00:18.201Z,626
2022-09-04T04:02:18.023Z,602
2022-09-04T04:04:17.860Z,679
2022-09-04T04:06:17.668Z,695
2022-09-04T04:08:17.590Z,702
2022-09-04T04:10:17.944Z,743
2022-09-04T04:12:17.730Z,747
2022-09-04T04:14:18.163Z,690
2022-09-04T04:16:18.749Z,709
2022-09-04T04:18:17.766Z,763
2022-09-04T04:20:17.556Z,735
2022-09-04T04:22:17.373Z,631
2022-09-04T04:24:18.222Z,735
2022-09-04T04:26:18.048Z,712
2022-09-04T04:28:17.900Z,687
2022-09-04T04:30:17.683Z,623
2022-09-04T04:32:17.545Z,800
2022-09-04T04:34:17.481Z,613
2022-09-04T04:36:17.425Z,635
2022-09-04T04:38:18.416Z,757
2022-09-04T04:40:18.287Z,640
2022-09-04T04:42:18.286Z,698
2022-09-04T04:44:18.239Z,683
2022-09-04T04:46:18.148Z,627
2022-09-04T04:48:18.237Z,611
2022-09-04T04:50:18.162Z,669
2022-09-04T04:52:17.958Z,680
2022-09-04T04:54:17.730Z,637
2022-09-04T04:56:17.523Z,679
2022-09-04T04:58:18.422Z,640
2022-09-04T05:00:18.219Z,653
2022-09-04T05:02:18.379Z,575
2022-09-04T05:04:18.328Z,585
2022-09-04T05:06:18.275Z,587
2022-09-04T05:08:18.009Z,685
2022-09-04T05:10:18.184Z,636
2022-09-04T05:12:18.367Z,624
2022-09-04T05:14:18.147Z,673
2022-09-04T05:16:18.120Z,680
2022-09-04T05:18:18.356Z,540
2022-09-04T05:20:18.274Z,629
2022-09-04T05:22:18.092Z,686
2022-09-04T05:24:17.960Z,596
2022-09-04T05:26:17.926Z,478
2022-09-04T05:28:18.155Z,627
2022-09-04T05:30:18.141Z,566
2022-09-04T05:32:18.024Z,675
2022-09-04T05:34:17.781Z,645
2022-09-04T05:36:18.157Z,557
2022-09-04T05:38:18.331Z,523
2022-09-04T05:40:18.235Z,622
2022-09-04T05:42:17.459Z,616
2022-09-04T05:44:18.314Z,581
2022-09-04T05:46:18.310Z,587
2022-09-04T05:48:18.325Z,666
2022-09-04T05:50:18.285Z,558
2022-09-04T05:52:18.137Z,596
2022-09-04T05:54:18.000Z,561
2022-09-04T05:56:18.091Z,594
2022-09-04T05:58:18.091Z,619
2022-09-04T06:00:17.948Z,599
2022-09-04T06:02:17.563Z,670
2022-09-04T06:04:17.380Z,528
2022-09-04T06:06:17.613Z,539
2022-09-04T06:08:17.475Z,583
2022-09-04T06:10:18.399Z,674
2022-09-04T06:12:19.485Z,586
2022-09-04T06:14:17.470Z,609
2022-09-04T06:16:18.347Z,637
2022-09-04T06:18:18.402Z,656
2022-09-04T06:20:18.313Z,488
2022-09-04T06:22:18.113Z,640
2022-09-04T06:24:18.017Z,619
2022-09-04T06:26:17.848Z,567
2022-09-04T06:28:17.629Z,566
2022-09-04T06:30:19.724Z,552
2022-09-04T06:32:18.242Z,538
2022-09-04T06:34:22.144Z,509
2022-09-04T06:36:18.159Z,625
2022-09-04T06:38:18.056Z,538
2022-09-04T06:40:18.007Z,553
2022-09-04T06:42:17.801Z,529
2022-09-04T06:44:17.796Z,552
2022-09-04T06:46:17.671Z,569
2022-09-04T06:48:17.458Z,569
2022-09-04T06:50:17.517Z,630
2022-09-04T06:52:17.311Z,536
2022-09-04T06:54:18.113Z,598
2022-09-04T06:56:17.539Z,587
2022-09-04T06:58:17.607Z,509
2022-09-04T07:00:17.591Z,544
2022-09-04T07:02:17.598Z,502
2022-09-04T07:04:17.540Z,536
2022-09-04T07:06:18.332Z,521
2022-09-04T07:08:17.376Z,620
2022-09-04T07:10:18.261Z,608
2022-09-04T07:12:18.145Z,537
2022-09-04T07:14:18.000Z,596
2022-09-04T07:16:17.890Z,545
2022-09-04T07:18:17.959Z,548
2022-09-04T07:20:17.815Z,582
2022-09-04T07:22:17.678Z,616
2022-09-04T07:24:17.538Z,607
2022-09-04T07:26:17.437Z,630
2022-09-04T07:28:18.337Z,628
2022-09-04T07:30:19.232Z,644
2022-09-04T07:32:18.293Z,646
2022-09-04T07:34:18.089Z,579
2022-09-04T07:36:17.842Z,641
2022-09-04T07:38:18.237Z,584
2022-09-04T07:40:18.050Z,632
2022-09-04T07:42:17.362Z,634
2022-09-04T07:44:18.411Z,650
2022-09-04T07:46:18.322Z,620
2022-09-04T07:48:18.017Z,488
2022-09-04T07:50:18.913Z,588
2022-09-04T07:52:18.199Z,664
2022-09-04T07:54:20.534Z,622
2022-09-04T07:56:17.570Z,657
2022-09-04T07:58:18.414Z,699
2022-09-04T08:00:18.284Z,582
2022-09-04T08:02:18.217Z,691
2022-09-04T08:04:17.379Z,580
2022-09-04T08:06:18.429Z,693
2022-09-04T08:08:18.346Z,639
2022-09-04T08:10:19.564Z,637
2022-09-04T08:12:18.396Z,645
2022-09-04T08:14:18.223Z,649
2022-09-04T08:16:18.018Z,687
2022-09-04T08:18:18.100Z,639
2022-09-04T08:20:18.088Z,621
2022-09-04T08:22:17.872Z,667
2022-09-04T08:24:17.754Z,686
2022-09-04T08:26:17.680Z,681
2022-09-04T08:28:17.637Z,746
2022-09-04T08:30:17.528Z,642
2022-09-04T08:32:18.330Z,794
2022-09-04T08:34:18.191Z,714
2022-09-04T08:36:17.958Z,836
2022-09-04T08:38:17.800Z,774
2022-09-04T08:40:17.657Z,730
2022-09-04T08:42:17.592Z,717
2022-09-04T08:44:18.404Z,765
2022-09-04T08:46:18.295Z,749
2022-09-04T08:48:18.580Z,833
2022-09-04T08:50:17.835Z,772
2022-09-04T08:52:17.590Z,806
2022-09-04T08:54:17.360Z,782
2022-09-04T08:56:18.191Z,798
2022-09-04T08:58:17.445Z,782
2022-09-04T09:00:17.441Z,763
2022-09-04T09:02:18.350Z,891
2022-09-04T09:04:17.437Z,814
2022-09-04T09:06:18.245Z,801
2022-09-04T09:08:18.040Z,774
2022-09-04T09:10:18.078Z,819
2022-09-04T09:12:17.876Z,844
2022-09-04T09:14:17.615Z,756
2022-09-04T09:16:18.563Z,752
2022-09-04T09:18:17.714Z,844
2022-09-04T09:20:19.907Z,846
2022-09-04T09:22:17.969Z,783
2022-09-04T09:24:17.756Z,872
2022-09-04T09:26:17.651Z,845
2022-09-04T09:28:17.449Z,864
2022-09-04T09:30:18.309Z,772
2022-09-04T09:32:18.192Z,782
2022-09-04T09:34:18.000Z,813
2022-09-04T09:36:17.792Z,814
2022-09-04T09:38:18.208Z,818
2022-09-04T09:40:18.259Z,879
2022-09-04T09:42:17.453Z,797
2022-09-04T09:44:18.244Z,922
2022-09-04T09:46:18.256Z,818
2022-09-04T09:48:19.526Z,811
2022-09-04T09:50:17.330Z,874
2022-09-04T09:52:18.315Z,872
2022-09-04T09:54:18.086Z,886
2022-09-04T09:56:17.459Z,788
2022-09-04T09:58:17.570Z,854
2022-09-04T10:00:17.290Z,945
2022-09-04T10:02:18.223Z,930
2022-09-04T10:04:18.182Z,945
2022-09-04T10:06:17.990Z,914
2022-09-04T10:08:17.378Z,913
2022-09-04T10:10:19.523Z,916
2022-09-04T10:12:18.342Z,990
2022-09-04T10:14:20.258Z,853
2022-09-04T10:16:17.943Z,832
2022-09-04T10:18:18.292Z,901
2022-09-04T10:20:17.524Z,877
2022-09-04T10:22:17.393Z,914
2022-09-04T10:24:17.493Z,818
2022-09-04T10:26:19.129Z,838
2022-09-04T10:28:17.923Z,866
2022-09-04T10:30:18.070Z,928
2022-09-04T10:32:18.075Z,868
2022-09-04T10:34:17.889Z,854
2022-09-04T10:36:17.792Z,869
2022-09-04T10:38:17.656Z,911
2022-09-04T10:40:17.535Z,964
2022-09-04T10:42:17.413Z,917
2022-09-04T10:44:18.112Z,852
2022-09-04T10:46:22.817Z,893
2022-09-04T10:48:17.926Z,942
2022-09-04T10:50:17.779Z,985
2022-09-04T10:52:17.577Z,888
2022-09-04T10:54:17.589Z,922
2022-09-04T10:56:18.109Z,934
2022-09-04T10:58:18.308Z,843
2022-09-04T11:00:18.135Z,890
2022-09-04T11:02:18.067Z,874
2022-09-04T11:04:17.931Z,880
2022-09-04T11:06:17.798Z,931
2022-09-04T11:08:18.266Z,902
2022-09-04T11:10:17.452Z,868
2022-09-04T11:12:17.499Z,867
2022-09-04T11:14:18.329Z,915
2022-09-04T11:16:18.173Z,890
2022-09-04T11:18:18.266Z,915
2022-09-04T11:20:18.570Z,932
2022-09-04T11:22:17.446Z,937
2022-09-04T11:24:18.300Z,979
2022-09-04T11:26:18.268Z,959
2022-09-04T11:28:18.140Z,968
2022-09-04T11:30:19.672Z,966
2022-09-04T11:32:17.542Z,918
2022-09-04T11:34:17.597Z,910
2022-09-04T11:36:18.150Z,858
2022-09-04T11:38:17.982Z,897
2022-09-04T11:40:17.780Z,993
2022-09-04T11:42:17.726Z,999
2022-09-04T11:44:17.792Z,895
2022-09-04T11:46:18.294Z,940
2022-09-04T11:48:17.727Z,944
2022-09-04T11:50:17.598Z,811
2022-09-04T11:52:17.349Z,933
2022-09-04T11:54:18.227Z,925
2022-09-04T11:56:18.095Z,901
2022-09-04T11:58:17.989Z,996
2022-09-04T12:00:17.486Z,1037
2022-09-04T12:02:17.996Z,983
2022-09-04T12:04:17.539Z,998
2022-09-04T12:06:17.732Z,948
2022-09-04T12:08:17.683Z,918
2022-09-04T12:10:18.325Z,992
2022-09-04T12:12:18.182Z,922
2022-09-04T12:14:19.750Z,1032
2022-09-04T12:16:17.659Z,997
2022-09-04T12:18:17.551Z,990
2022-09-04T12:20:18.309Z,1040
2022-09-04T12:22:18.122Z,1039
2022-09-04T12:24:17.918Z,882
2022-09-04T12:26:17.746Z,964
2022-09-04T12:28:17.631Z,878
2022-09-04T12:30:18.319Z,909
2022-09-04T12:32:18.086Z,863
2022-09-04T12:34:17.903Z,920
2022-09-04T12:36:17.774Z,936
2022-09-04T12:38:17.572Z,916
2022-09-04T12:40:17.513Z,842
2022-09-04T12:42:17.596Z,924
2022-09-04T12:44:17.385Z,969
2022-09-04T12:46:18.315Z,980
2022-09-04T12:48:17.404Z,873
2022-09-04T12:50:18.222Z,1043
2022-09-04T12:52:18.152Z,1107
2022-09-04T12:54:17.975Z,950
2022-09-04T12:56:17.800Z,1022
2022-09-04T12:58:17.655Z,1026
2022-09-04T13:00:17.517Z,1092
2022-09-04T13:02:18.374Z,977
2022-09-04T13:04:18.320Z,1015
2022-09-04T13:06:18.198Z,1061
2022-09-04T13:08:18.246Z,997
2022-09-04T13:10:18.128Z,932
2022-09-04T13:12:17.941Z,956
2022-09-04T13:14:17.786Z,1020
2022-09-04T13:16:17.608Z,1036
2022-09-04T13:18:18.835Z,992
2022-09-04T13:20:17.651Z,1021
2022-09-04T13:22:17.669Z,1010
2022-09-04T13:24:17.552Z,1057
2022-09-04T13:26:18.471Z,904
2022-09-04T13:28:18.367Z,946
2022-09-04T13:30:18.201Z,941
2022-09-04T13:32:19.169Z,1001
2022-09-04T13:34:17.938Z,985
2022-09-04T13:36:18.374Z,1013
2022-09-04T13:38:18.230Z,974
2022-09-04T13:40:18.017Z,800
2022-09-04T13:42:17.872Z,873
2022-09-04T13:44:17.559Z,1035
2022-09-04T13:46:18.376Z,960
2022-09-04T13:48:17.373Z,900
2022-09-04T13:50:19.959Z,1034
2022-09-04T13:52:18.242Z,1007
2022-09-04T13:54:18.121Z,1018
2022-09-04T13:56:18.388Z,1005
2022-09-04T13:58:18.325Z,945
2022-09-04T14:00:17.724Z,1027
2022-09-04T14:02:17.532Z,1025
2022-09-04T14:04:18.425Z,1022
2022-09-04T14:06:18.193Z,986
2022-09-04T14:08:18.380Z,894
2022-09-04T14:10:18.213Z,958
2022-09-04T14:12:17.825Z,921
2022-09-04T14:14:17.741Z,986
2022-09-04T14:16:17.504Z,996
2022-09-04T14:18:17.566Z,1081
2022-09-04T14:20:20.663Z,933
2022-09-04T14:22:17.651Z,929
2022-09-04T14:24:19.428Z,915
2022-09-04T14:26:17.357Z,948
2022-09-04T14:28:18.185Z,992
2022-09-04T14:30:18.251Z,990
2022-09-04T14:32:18.061Z,1010
2022-09-04T14:34:17.946Z,1068
2022-09-04T14:36:17.941Z,957
2022-09-04T14:38:18.352Z,1015
2022-09-04T14:40:18.272Z,924
2022-09-04T14:42:18.139Z,990
2022-09-04T14:44:18.257Z,1032
2022-09-04T14:46:18.257Z,1068
2022-09-04T14:48:18.156Z,992
2022-09-04T14:50:18.239Z,920
2022-09-04T14:52:18.301Z,1018
2022-09-04T14:54:18.101Z,991
2022-09-04T14:56:17.932Z,1013
2022-09-04T14:58:17.787Z,1013
2022-09-04T15:00:17.680Z,894
2022-09-04T15:02:17.480Z,1050
2022-09-04T15:04:18.206Z,1028
2022-09-04T15:06:21.422Z,917
2022-09-04T15:08:18.202Z,881
2022-09-04T15:10:17.778Z,1059
2022-09-04T15:12:25.915Z,1075
2022-09-04T15:14:18.295Z,1129
2022-09-04T15:16:18.243Z,959
2022-09-04T15:18:18.262Z,1035
2022-09-04T15:20:18.018Z,1036
2022-09-04T15:22:18.048Z,1027
2022-09-04T15:24:18.028Z,1028
2022-09-04T15:26:17.872Z,1024
2022-09-04T15:28:17.778Z,998
2022-09-04T15:30:17.626Z,1041
2022-09-04T15:32:17.430Z,1048
2022-09-04T15:34:18.295Z,963
2022-09-04T15:36:18.148Z,863
2022-09-04T15:38:18.248Z,1034
2022-09-04T15:40:18.133Z,987
2022-09-04T15:42:18.219Z,1021
2022-09-04T15:44:18.063Z,954
2022-09-04T15:46:18.070Z,1009
2022-09-04T15:48:17.949Z,1009
2022-09-04T15:50:17.713Z,953
2022-09-04T15:52:17.483Z,853
2022-09-04T15:54:17.392Z,982
2022-09-04T15:56:18.211Z,1050
2022-09-04T15:58:18.229Z,937
2022-09-04T16:00:20.538Z,986
2022-09-04T16:02:17.431Z,1053
2022-09-04T16:04:18.209Z,942
2022-09-04T16:06:18.003Z,1052
2022-09-04T16:08:17.786Z,897
2022-09-04T16:10:17.614Z,986
2022-09-04T16:12:17.710Z,973
2022-09-04T16:14:17.467Z,905
2022-09-04T16:16:17.717Z,903
2022-09-04T16:18:17.668Z,897
2022-09-04T16:20:18.018Z,899
2022-09-04T16:22:17.763Z,950
2022-09-04T16:24:17.532Z,834
2022-09-04T16:26:18.298Z,958
2022-09-04T16:28:18.188Z,902
2022-09-04T16:30:17.957Z,915
2022-09-04T16:32:18.322Z,872
2022-09-04T16:34:18.176Z,1035
2022-09-04T16:36:18.015Z,941
2022-09-04T16:38:21.006Z,911
2022-09-04T16:40:18.268Z,867
2022-09-04T16:42:18.270Z,928
2022-09-04T16:44:22.085Z,879
2022-09-04T16:46:18.039Z,966
2022-09-04T16:48:25.112Z,924
2022-09-04T16:50:17.358Z,993
2022-09-04T16:52:18.045Z,949
2022-09-04T16:54:18.306Z,826
2022-09-04T16:56:18.112Z,699
2022-09-04T16:58:17.950Z,715
2022-09-04T17:00:17.998Z,709
2022-09-04T17:02:18.313Z,641
2022-09-04T17:04:18.204Z,750
2022-09-04T17:06:18.068Z,848
2022-09-04T17:08:17.447Z,737
2022-09-04T17:10:18.293Z,712
2022-09-04T17:12:18.345Z,669
2022-09-04T17:14:18.114Z,785
2022-09-04T17:16:17.998Z,735
2022-09-04T17:18:20.661Z,677
2022-09-04T17:20:18.104Z,675
2022-09-04T17:25:24.397Z,748
2022-09-04T17:29:05.796Z,624
2022-09-04T17:29:06.085Z,716
2022-09-04T17:29:06.270Z,737
2022-09-04T17:30:25.485Z,706
2022-09-04T17:32:19.669Z,718
2022-09-04T17:36:23.621Z,697
2022-09-04T17:40:34.399Z,762
2022-09-04T17:40:45.098Z,752
2022-09-04T17:40:46.222Z,687
2022-09-04T17:42:17.811Z,759
2022-09-04T17:44:17.983Z,725
2022-09-04T17:46:18.310Z,765
2022-09-04T17:48:18.207Z,605
2022-09-04T17:50:18.261Z,687
2022-09-04T17:52:18.393Z,763
2022-09-04T17:54:18.289Z,708
2022-09-04T17:56:17.493Z,776
2022-09-04T17:58:17.461Z,845
2022-09-04T18:00:18.249Z,750
2022-09-04T18:02:18.136Z,804
2022-09-04T18:04:20.159Z,714
2022-09-04T18:06:18.226Z,780
2022-09-04T18:08:17.683Z,761
2022-09-04T18:10:17.499Z,719
2022-09-04T18:12:17.646Z,709
2022-09-04T18:14:17.791Z,607
2022-09-04T18:16:18.260Z,714
2022-09-04T18:18:18.331Z,588
2022-09-04T18:20:18.496Z,743
2022-09-04T18:22:26.205Z,601
2022-09-04T18:24:17.525Z,767
2022-09-04T18:26:18.284Z,714
2022-09-04T18:28:18.273Z,732
2022-09-04T18:32:20.346Z,687
2022-09-04T18:37:14.253Z,724
2022-09-04T18:37:15.298Z,706
2022-09-04T18:37:15.504Z,665
2022-09-04T18:38:19.868Z,551
2022-09-04T18:40:21.191Z,616
2022-09-04T18:44:56.758Z,757
2022-09-04T18:47:26.710Z,713
2022-09-04T18:50:27.104Z,575
2022-09-04T18:50:27.541Z,542
2022-09-04T18:50:27.643Z,554
2022-09-04T18:52:18.098Z,552
2022-09-04T18:54:18.383Z,551
2022-09-04T18:56:20.536Z,558
2022-09-04T18:58:17.901Z,603
2022-09-04T19:00:17.728Z,494
2022-09-04T19:02:17.741Z,515
2022-09-04T19:04:19.085Z,505
2022-09-04T19:06:17.564Z,603
2022-09-04T19:08:19.947Z,542
2022-09-04T19:10:18.042Z,557
2022-09-04T19:12:18.405Z,545
2022-09-04T19:14:18.178Z,577
2022-09-04T19:16:18.030Z,487
2022-09-04T19:18:17.671Z,669
2022-09-04T19:20:17.458Z,450
2022-09-04T19:22:18.147Z,667
2022-09-04T19:24:17.973Z,614
2022-09-04T19:26:17.743Z,611
2022-09-04T19:28:17.866Z,615
2022-09-04T19:30:20.177Z,646
2022-09-04T19:32:17.741Z,562
2022-09-04T19:34:17.798Z,616
2022-09-04T19:36:17.577Z,557
2022-09-04T19:39:11.490Z,654
2022-09-04T19:42:07.501Z,641
2022-09-04T19:44:49.041Z,660
2022-09-04T19:46:09.965Z,701
2022-09-04T19:46:27.609Z,692
2022-09-04T19:48:17.579Z,708
2022-09-04T19:51:50.953Z,733
2022-09-04T19:53:23.733Z,711
2022-09-04T19:54:18.090Z,636
2022-09-04T19:56:18.009Z,552
2022-09-04T19:58:17.889Z,688
2022-09-04T20:00:31.381Z,576
2022-09-04T20:02:17.484Z,628
2022-09-04T20:04:18.359Z,543
2022-09-04T20:06:20.325Z,573
2022-09-04T20:08:18.015Z,567
2022-09-04T20:10:17.889Z,589
2022-09-04T20:12:17.632Z,584
2022-09-04T20:14:17.526Z,562
2022-09-04T20:16:21.324Z,656
2022-09-04T20:18:17.443Z,517
2022-09-04T20:20:17.453Z,544
2022-09-04T20:22:17.545Z,694
2022-09-04T20:24:17.636Z,475
2022-09-04T20:26:17.437Z,698
2022-09-04T20:28:17.443Z,687
2022-09-04T20:30:18.277Z,583
2022-09-04T20:32:18.187Z,624
2022-09-04T20:34:18.090Z,686
2022-09-04T20:36:17.969Z,733
2022-09-04T20:38:23.087Z,715
2022-09-04T20:40:17.526Z,687
2022-09-04T20:42:18.326Z,690
2022-09-04T20:44:18.242Z,710
2022-09-04T20:46:54.120Z,885
2022-09-04T20:52:46.625Z,952
2022-09-04T20:52:47.208Z,816
2022-09-04T20:52:47.899Z,844
2022-09-04T20:54:23.312Z,846
2022-09-04T20:56:55.574Z,811
2022-09-04T21:00:36.621Z,858
2022-09-04T21:03:06.810Z,794
2022-09-04T21:03:07.197Z,849
2022-09-04T21:04:18.071Z,844
2022-09-04T21:06:17.775Z,790
2022-09-04T21:08:17.608Z,801
2022-09-04T21:10:17.718Z,839
2022-09-04T21:12:17.612Z,619
2022-09-04T21:14:17.784Z,671
2022-09-04T21:16:17.559Z,842
2022-09-04T21:18:18.260Z,848
2022-09-04T21:20:18.270Z,859
2022-09-04T21:22:32.194Z,721
2022-09-04T21:24:17.870Z,782
2022-09-04T21:26:17.680Z,774
2022-09-04T21:28:17.576Z,782
2022-09-04T21:30:17.393Z,742
2022-09-04T21:32:18.234Z,665
2022-09-04T21:34:18.124Z,764
2022-09-04T21:36:25.295Z,721
2022-09-04T21:38:18.203Z,712
2022-09-04T21:40:18.807Z,714
2022-09-04T21:42:18.299Z,807
2022-09-04T21:44:18.093Z,709
2022-09-04T21:46:17.964Z,693
2022-09-04T21:48:23.382Z,653
2022-09-04T21:50:17.473Z,634
2022-09-04T21:52:17.726Z,687
2022-09-04T21:54:38.502Z,660
2022-09-04T21:56:49.414Z,698
2022-09-04T22:02:33.154Z,712
2022-09-04T22:02:34.267Z,724
2022-09-04T22:02:34.553Z,704
2022-09-04T22:04:17.945Z,714
2022-09-04T22:06:17.795Z,699
2022-09-04T22:09:59.145Z,719
2022-09-04T22:13:35.638Z,730
2022-09-04T22:13:36.699Z,701
2022-09-04T22:14:17.721Z,747
2022-09-04T22:16:17.604Z,669
2022-09-04T22:18:17.626Z,717
2022-09-04T22:20:17.489Z,684
2022-09-04T22:22:18.317Z,625
2022-09-04T22:24:18.140Z,691
2022-09-04T22:26:23.731Z,698
2022-09-04T22:28:17.505Z,760
2022-09-04T22:30:17.587Z,732
2022-09-04T22:32:20.169Z,786
2022-09-04T22:34:17.824Z,815
2022-09-04T22:36:17.622Z,809
2022-09-04T22:38:17.368Z,844
2022-09-04T22:40:17.615Z,818
2022-09-04T22:42:18.814Z,691
2022-09-04T22:44:18.172Z,768
2022-09-04T22:46:18.163Z,834
2022-09-04T22:48:18.332Z,817
2022-09-04T22:50:18.108Z,846
2022-09-04T22:52:17.943Z,827
2022-09-04T22:54:17.753Z,762
2022-09-04T22:56:23.761Z,834
2022-09-04T22:58:17.888Z,826
2022-09-04T23:00:17.800Z,874
2022-09-04T23:02:18.108Z,891
2022-09-04T23:04:17.895Z,884
2022-09-04T23:06:27.412Z,815
2022-09-04T23:11:09.659Z,864
2022-09-04T23:13:45.395Z,884
2022-09-04T23:13:46.093Z,803
2022-09-04T23:14:19.113Z,854
2022-09-04T23:16:17.407Z,1011
2022-09-04T23:20:35.810Z,836
2022-09-04T23:22:44.425Z,817
2022-09-04T23:26:39.834Z,827
2022-09-04T23:26:40.918Z,826
2022-09-04T23:26:54.768Z,943
2022-09-04T23:28:27.356Z,986
2022-09-04T23:30:18.204Z,881
2022-09-04T23:32:17.923Z,859
2022-09-04T23:34:17.712Z,1011
2022-09-04T23:36:17.526Z,895
2022-09-04T23:38:18.131Z,811
2022-09-04T23:40:17.881Z,920
2022-09-04T23:42:17.711Z,895
2022-09-04T23:44:25.354Z,864
2022-09-04T23:46:17.551Z,935
2022-09-04T23:48:17.507Z,904
2022-09-04T23:50:17.712Z,1006
2022-09-04T23:52:17.891Z,932
2022-09-04T23:54:24.585Z,902
2022-09-04T23:56:18.064Z,988
2022-09-04T23:58:17.845Z,817
